sensor_id;sensor_type;location;lat;lon;timestamp;temperature;humidity
26378;DHT22;14078;50.974;6.786;2023-07-28T00:00:43;17.50;99.90
26378;DHT22;14078;50.974;6.786;2023-07-28T00:03:11;17.50;99.90
26378;DHT22;14078;50.974;6.786;2023-07-28T00:05:37;17.50;99.90
26378;DHT22;14078;50.974;6.786;2023-07-28T00:08:04;17.50;99.90
26378;DHT22;14078;50.974;6.786;2023-07-28T00:10:30;17.50;99.90
26378;DHT22;14078;50.974;6.786;2023-07-28T00:12:57;17.50;99.90
26378;DHT22;14078;50.974;6.786;2023-07-28T00:15:23;17.50;99.90
26378;DHT22;14078;50.974;6.786;2023-07-28T00:17:50;17.50;99.90
26378;DHT22;14078;50.974;6.786;2023-07-28T00:20:18;17.50;99.90
26378;DHT22;14078;50.974;6.786;2023-07-28T00:22:45;17.40;99.90
26378;DHT22;14078;50.974;6.786;2023-07-28T00:25:11;17.40;99.90
26378;DHT22;14078;50.974;6.786;2023-07-28T00:27:38;17.50;99.90
26378;DHT22;14078;50.974;6.786;2023-07-28T00:30:05;17.60;99.90
26378;DHT22;14078;50.974;6.786;2023-07-28T00:32:31;17.50;99.90
26378;DHT22;14078;50.974;6.786;2023-07-28T00:34:58;17.60;99.90
26378;DHT22;14078;50.974;6.786;2023-07-28T00:37:26;17.60;99.90
26378;DHT22;14078;50.974;6.786;2023-07-28T00:39:52;17.50;99.90
26378;DHT22;14078;50.974;6.786;2023-07-28T00:42:19;17.60;99.90
26378;DHT22;14078;50.974;6.786;2023-07-28T00:44:45;17.60;99.90
26378;DHT22;14078;50.974;6.786;2023-07-28T00:47:12;17.60;99.90
26378;DHT22;14078;50.974;6.786;2023-07-28T00:49:38;17.60;99.90
26378;DHT22;14078;50.974;6.786;2023-07-28T00:52:06;17.60;99.90
26378;DHT22;14078;50.974;6.786;2023-07-28T00:54:34;17.60;99.90
26378;DHT22;14078;50.974;6.786;2023-07-28T00:57:01;17.60;99.90
26378;DHT22;14078;50.974;6.786;2023-07-28T00:59:28;17.60;99.90
26378;DHT22;14078;50.974;6.786;2023-07-28T01:01:55;17.60;99.90
26378;DHT22;14078;50.974;6.786;2023-07-28T01:04:21;17.60;99.90
26378;DHT22;14078;50.974;6.786;2023-07-28T01:06:50;17.60;99.90
26378;DHT22;14078;50.974;6.786;2023-07-28T01:09:19;17.60;99.90
26378;DHT22;14078;50.974;6.786;2023-07-28T01:11:54;17.60;99.90
26378;DHT22;14078;50.974;6.786;2023-07-28T01:14:21;17.60;99.90
26378;DHT22;14078;50.974;6.786;2023-07-28T01:16:47;17.60;99.90
26378;DHT22;14078;50.974;6.786;2023-07-28T01:19:14;17.60;99.90
26378;DHT22;14078;50.974;6.786;2023-07-28T01:21:43;17.50;99.90
26378;DHT22;14078;50.974;6.786;2023-07-28T01:24:14;17.50;99.90
26378;DHT22;14078;50.974;6.786;2023-07-28T01:26:43;17.50;99.90
26378;DHT22;14078;50.974;6.786;2023-07-28T01:29:09;17.50;99.90
26378;DHT22;14078;50.974;6.786;2023-07-28T01:31:38;17.50;99.90
26378;DHT22;14078;50.974;6.786;2023-07-28T01:34:05;17.70;99.90
26378;DHT22;14078;50.974;6.786;2023-07-28T01:36:32;17.70;99.90
26378;DHT22;14078;50.974;6.786;2023-07-28T01:38:58;17.70;99.90
26378;DHT22;14078;50.974;6.786;2023-07-28T01:41:25;17.60;99.90
26378;DHT22;14078;50.974;6.786;2023-07-28T01:43:52;17.60;99.90
26378;DHT22;14078;50.974;6.786;2023-07-28T01:46:21;17.50;99.90
26378;DHT22;14078;50.974;6.786;2023-07-28T01:48:47;17.50;99.90
26378;DHT22;14078;50.974;6.786;2023-07-28T01:51:14;17.50;99.90
26378;DHT22;14078;50.974;6.786;2023-07-28T01:53:40;17.60;99.90
26378;DHT22;14078;50.974;6.786;2023-07-28T01:56:07;17.60;99.90
26378;DHT22;14078;50.974;6.786;2023-07-28T01:58:33;17.60;99.90
26378;DHT22;14078;50.974;6.786;2023-07-28T02:01:01;17.70;99.90
26378;DHT22;14078;50.974;6.786;2023-07-28T02:03:28;17.60;99.90
26378;DHT22;14078;50.974;6.786;2023-07-28T02:05:54;17.60;99.90
26378;DHT22;14078;50.974;6.786;2023-07-28T02:08:21;17.60;99.90
26378;DHT22;14078;50.974;6.786;2023-07-28T02:10:47;17.40;99.90
26378;DHT22;14078;50.974;6.786;2023-07-28T02:13:14;17.60;99.90
26378;DHT22;14078;50.974;6.786;2023-07-28T02:15:40;17.50;99.90
26378;DHT22;14078;50.974;6.786;2023-07-28T02:18:08;17.60;99.90
26378;DHT22;14078;50.974;6.786;2023-07-28T02:20:34;17.50;99.90
26378;DHT22;14078;50.974;6.786;2023-07-28T02:23:03;17.60;99.90
26378;DHT22;14078;50.974;6.786;2023-07-28T02:25:29;17.50;99.90
26378;DHT22;14078;50.974;6.786;2023-07-28T02:27:56;17.50;99.90
26378;DHT22;14078;50.974;6.786;2023-07-28T02:30:22;17.50;99.90
26378;DHT22;14078;50.974;6.786;2023-07-28T02:32:49;17.50;99.90
26378;DHT22;14078;50.974;6.786;2023-07-28T02:35:17;17.40;99.90
26378;DHT22;14078;50.974;6.786;2023-07-28T02:37:43;17.40;99.90
26378;DHT22;14078;50.974;6.786;2023-07-28T02:40:10;17.50;99.90
26378;DHT22;14078;50.974;6.786;2023-07-28T02:42:38;17.40;99.90
26378;DHT22;14078;50.974;6.786;2023-07-28T02:45:05;17.40;99.90
26378;DHT22;14078;50.974;6.786;2023-07-28T02:47:31;17.50;99.90
26378;DHT22;14078;50.974;6.786;2023-07-28T02:49:58;17.50;99.90
26378;DHT22;14078;50.974;6.786;2023-07-28T02:52:26;17.50;99.90
26378;DHT22;14078;50.974;6.786;2023-07-28T02:54:52;17.50;99.90
26378;DHT22;14078;50.974;6.786;2023-07-28T02:57:19;17.60;99.90
26378;DHT22;14078;50.974;6.786;2023-07-28T02:59:45;17.50;99.90
26378;DHT22;14078;50.974;6.786;2023-07-28T03:02:12;17.60;99.90
26378;DHT22;14078;50.974;6.786;2023-07-28T03:04:38;17.50;99.90
26378;DHT22;14078;50.974;6.786;2023-07-28T03:07:05;17.60;99.90
26378;DHT22;14078;50.974;6.786;2023-07-28T03:09:33;17.50;99.90
26378;DHT22;14078;50.974;6.786;2023-07-28T03:11:59;17.60;99.90
26378;DHT22;14078;50.974;6.786;2023-07-28T03:14:26;17.60;99.90
26378;DHT22;14078;50.974;6.786;2023-07-28T03:16:53;17.60;99.90
26378;DHT22;14078;50.974;6.786;2023-07-28T03:19:20;17.50;99.90
26378;DHT22;14078;50.974;6.786;2023-07-28T03:21:46;17.60;99.90
26378;DHT22;14078;50.974;6.786;2023-07-28T03:24:13;17.70;99.90
26378;DHT22;14078;50.974;6.786;2023-07-28T03:26:41;17.70;99.90
26378;DHT22;14078;50.974;6.786;2023-07-28T03:29:07;17.60;99.90
26378;DHT22;14078;50.974;6.786;2023-07-28T03:31:34;17.60;99.90
26378;DHT22;14078;50.974;6.786;2023-07-28T03:34:01;17.60;99.90
26378;DHT22;14078;50.974;6.786;2023-07-28T03:36:27;17.60;99.90
26378;DHT22;14078;50.974;6.786;2023-07-28T03:38:54;17.60;99.90
26378;DHT22;14078;50.974;6.786;2023-07-28T03:41:20;17.60;99.90
26378;DHT22;14078;50.974;6.786;2023-07-28T03:43:48;17.60;99.90
26378;DHT22;14078;50.974;6.786;2023-07-28T03:46:15;17.60;99.90
26378;DHT22;14078;50.974;6.786;2023-07-28T03:48:41;17.70;99.90
26378;DHT22;14078;50.974;6.786;2023-07-28T03:51:08;17.70;99.90
26378;DHT22;14078;50.974;6.786;2023-07-28T03:53:34;17.60;99.90
26378;DHT22;14078;50.974;6.786;2023-07-28T03:56:01;17.70;99.90
26378;DHT22;14078;50.974;6.786;2023-07-28T03:58:28;17.60;99.90
26378;DHT22;14078;50.974;6.786;2023-07-28T04:00:55;17.60;99.90
26378;DHT22;14078;50.974;6.786;2023-07-28T04:03:22;17.70;99.90
26378;DHT22;14078;50.974;6.786;2023-07-28T04:05:48;17.70;99.90
26378;DHT22;14078;50.974;6.786;2023-07-28T04:08:15;17.70;99.90
26378;DHT22;14078;50.974;6.786;2023-07-28T04:10:42;17.60;99.90
26378;DHT22;14078;50.974;6.786;2023-07-28T04:13:08;17.70;99.90
26378;DHT22;14078;50.974;6.786;2023-07-28T04:15:35;17.60;99.90
26378;DHT22;14078;50.974;6.786;2023-07-28T04:18:03;17.60;99.90
26378;DHT22;14078;50.974;6.786;2023-07-28T04:20:29;17.60;99.90
26378;DHT22;14078;50.974;6.786;2023-07-28T04:22:56;17.70;99.90
26378;DHT22;14078;50.974;6.786;2023-07-28T04:25:22;17.70;99.90
26378;DHT22;14078;50.974;6.786;2023-07-28T04:27:49;17.70;99.90
26378;DHT22;14078;50.974;6.786;2023-07-28T04:30:15;17.70;99.90
26378;DHT22;14078;50.974;6.786;2023-07-28T04:32:42;17.70;99.90
26378;DHT22;14078;50.974;6.786;2023-07-28T04:35:09;17.70;99.90
26378;DHT22;14078;50.974;6.786;2023-07-28T04:37:36;17.80;99.90
26378;DHT22;14078;50.974;6.786;2023-07-28T04:40:03;17.80;99.90
26378;DHT22;14078;50.974;6.786;2023-07-28T04:42:30;17.70;99.90
26378;DHT22;14078;50.974;6.786;2023-07-28T04:44:56;17.80;99.90
26378;DHT22;14078;50.974;6.786;2023-07-28T04:47:23;17.70;99.90
26378;DHT22;14078;50.974;6.786;2023-07-28T04:49:49;17.80;99.90
26378;DHT22;14078;50.974;6.786;2023-07-28T04:52:17;17.80;99.90
26378;DHT22;14078;50.974;6.786;2023-07-28T04:54:43;17.90;99.90
26378;DHT22;14078;50.974;6.786;2023-07-28T04:57:10;17.80;99.90
26378;DHT22;14078;50.974;6.786;2023-07-28T04:59:36;17.80;99.90
26378;DHT22;14078;50.974;6.786;2023-07-28T05:02:03;17.90;99.90
26378;DHT22;14078;50.974;6.786;2023-07-28T05:04:30;17.90;99.90
26378;DHT22;14078;50.974;6.786;2023-07-28T05:06:56;17.80;99.90
26378;DHT22;14078;50.974;6.786;2023-07-28T05:09:24;17.80;99.90
26378;DHT22;14078;50.974;6.786;2023-07-28T05:11:53;17.80;99.90
26378;DHT22;14078;50.974;6.786;2023-07-28T05:14:20;17.90;99.90
26378;DHT22;14078;50.974;6.786;2023-07-28T05:16:46;17.80;99.90
26378;DHT22;14078;50.974;6.786;2023-07-28T05:19:13;17.90;99.90
26378;DHT22;14078;50.974;6.786;2023-07-28T05:21:39;17.80;99.90
26378;DHT22;14078;50.974;6.786;2023-07-28T05:24:06;17.80;99.90
26378;DHT22;14078;50.974;6.786;2023-07-28T05:26:34;17.80;99.90
26378;DHT22;14078;50.974;6.786;2023-07-28T05:29:00;18.00;99.90
26378;DHT22;14078;50.974;6.786;2023-07-28T05:31:27;18.00;99.90
26378;DHT22;14078;50.974;6.786;2023-07-28T05:33:53;17.90;99.90
26378;DHT22;14078;50.974;6.786;2023-07-28T05:36:20;18.00;99.90
26378;DHT22;14078;50.974;6.786;2023-07-28T05:38:46;18.00;99.90
26378;DHT22;14078;50.974;6.786;2023-07-28T05:41:13;18.00;99.90
26378;DHT22;14078;50.974;6.786;2023-07-28T05:43:40;18.00;99.90
26378;DHT22;14078;50.974;6.786;2023-07-28T05:46:07;18.00;99.90
26378;DHT22;14078;50.974;6.786;2023-07-28T05:48:34;18.00;99.90
26378;DHT22;14078;50.974;6.786;2023-07-28T05:51:00;18.00;99.90
26378;DHT22;14078;50.974;6.786;2023-07-28T05:53:27;17.90;99.90
26378;DHT22;14078;50.974;6.786;2023-07-28T05:55:53;18.00;99.90
26378;DHT22;14078;50.974;6.786;2023-07-28T05:58:20;18.00;99.90
26378;DHT22;14078;50.974;6.786;2023-07-28T06:00:47;18.00;99.90
26378;DHT22;14078;50.974;6.786;2023-07-28T06:03:14;18.00;99.90
26378;DHT22;14078;50.974;6.786;2023-07-28T06:05:40;18.10;99.90
26378;DHT22;14078;50.974;6.786;2023-07-28T06:08:07;18.10;99.90
26378;DHT22;14078;50.974;6.786;2023-07-28T06:10:34;18.10;99.90
26378;DHT22;14078;50.974;6.786;2023-07-28T06:13:00;18.10;99.90
26378;DHT22;14078;50.974;6.786;2023-07-28T06:15:27;18.10;99.90
26378;DHT22;14078;50.974;6.786;2023-07-28T06:17:55;18.10;99.90
26378;DHT22;14078;50.974;6.786;2023-07-28T06:20:21;18.20;99.90
26378;DHT22;14078;50.974;6.786;2023-07-28T06:22:48;18.20;99.90
26378;DHT22;14078;50.974;6.786;2023-07-28T06:25:14;18.20;99.90
26378;DHT22;14078;50.974;6.786;2023-07-28T06:27:41;18.20;99.90
26378;DHT22;14078;50.974;6.786;2023-07-28T06:30:08;18.20;99.90
26378;DHT22;14078;50.974;6.786;2023-07-28T06:32:35;18.20;99.90
26378;DHT22;14078;50.974;6.786;2023-07-28T06:35:03;18.20;99.90
26378;DHT22;14078;50.974;6.786;2023-07-28T06:37:30;18.20;99.90
26378;DHT22;14078;50.974;6.786;2023-07-28T06:39:56;18.30;99.90
26378;DHT22;14078;50.974;6.786;2023-07-28T06:42:23;18.20;99.90
26378;DHT22;14078;50.974;6.786;2023-07-28T06:44:50;18.20;99.90
26378;DHT22;14078;50.974;6.786;2023-07-28T06:47:16;18.20;99.90
26378;DHT22;14078;50.974;6.786;2023-07-28T06:49:43;18.30;99.90
26378;DHT22;14078;50.974;6.786;2023-07-28T06:52:11;18.30;99.90
26378;DHT22;14078;50.974;6.786;2023-07-28T06:54:37;18.20;99.90
26378;DHT22;14078;50.974;6.786;2023-07-28T06:57:04;18.30;99.90
26378;DHT22;14078;50.974;6.786;2023-07-28T06:59:31;18.30;99.90
26378;DHT22;14078;50.974;6.786;2023-07-28T07:01:58;18.30;99.90
26378;DHT22;14078;50.974;6.786;2023-07-28T07:04:24;18.40;99.90
26378;DHT22;14078;50.974;6.786;2023-07-28T07:06:51;18.40;99.90
26378;DHT22;14078;50.974;6.786;2023-07-28T07:09:19;18.40;99.90
26378;DHT22;14078;50.974;6.786;2023-07-28T07:11:46;18.40;99.90
26378;DHT22;14078;50.974;6.786;2023-07-28T07:14:12;18.50;99.90
26378;DHT22;14078;50.974;6.786;2023-07-28T07:16:39;18.50;99.90
26378;DHT22;14078;50.974;6.786;2023-07-28T07:19:06;18.40;99.90
26378;DHT22;14078;50.974;6.786;2023-07-28T07:21:32;18.40;99.90
26378;DHT22;14078;50.974;6.786;2023-07-28T07:23:59;18.50;99.90
26378;DHT22;14078;50.974;6.786;2023-07-28T07:26:27;18.40;99.90
26378;DHT22;14078;50.974;6.786;2023-07-28T07:28:53;18.40;99.90
26378;DHT22;14078;50.974;6.786;2023-07-28T07:31:20;18.50;99.90
26378;DHT22;14078;50.974;6.786;2023-07-28T07:33:46;18.50;99.90
26378;DHT22;14078;50.974;6.786;2023-07-28T07:36:13;18.50;99.90
26378;DHT22;14078;50.974;6.786;2023-07-28T07:38:40;18.60;99.90
26378;DHT22;14078;50.974;6.786;2023-07-28T07:41:07;18.50;99.90
26378;DHT22;14078;50.974;6.786;2023-07-28T07:43:35;18.60;99.90
26378;DHT22;14078;50.974;6.786;2023-07-28T07:46:02;18.70;99.90
26378;DHT22;14078;50.974;6.786;2023-07-28T07:48:28;18.70;99.90
26378;DHT22;14078;50.974;6.786;2023-07-28T07:50:55;18.80;99.90
26378;DHT22;14078;50.974;6.786;2023-07-28T07:53:22;18.70;99.90
26378;DHT22;14078;50.974;6.786;2023-07-28T07:55:48;18.80;99.90
26378;DHT22;14078;50.974;6.786;2023-07-28T07:58:15;18.80;99.90
26378;DHT22;14078;50.974;6.786;2023-07-28T08:00:43;18.90;99.90
26378;DHT22;14078;50.974;6.786;2023-07-28T08:03:10;19.10;99.90
26378;DHT22;14078;50.974;6.786;2023-07-28T08:05:36;19.20;99.90
26378;DHT22;14078;50.974;6.786;2023-07-28T08:08:03;19.30;99.90
26378;DHT22;14078;50.974;6.786;2023-07-28T08:10:32;19.30;99.90
26378;DHT22;14078;50.974;6.786;2023-07-28T08:12:59;19.40;99.90
26378;DHT22;14078;50.974;6.786;2023-07-28T08:15:25;19.50;99.90
26378;DHT22;14078;50.974;6.786;2023-07-28T08:17:53;19.70;99.90
26378;DHT22;14078;50.974;6.786;2023-07-28T08:20:20;19.70;99.90
26378;DHT22;14078;50.974;6.786;2023-07-28T08:22:47;20.00;99.90
26378;DHT22;14078;50.974;6.786;2023-07-28T08:25:13;19.90;99.90
26378;DHT22;14078;50.974;6.786;2023-07-28T08:27:40;20.00;99.90
26378;DHT22;14078;50.974;6.786;2023-07-28T08:30:07;20.00;99.90
26378;DHT22;14078;50.974;6.786;2023-07-28T08:32:33;20.00;99.90
26378;DHT22;14078;50.974;6.786;2023-07-28T08:35:01;20.10;99.90
26378;DHT22;14078;50.974;6.786;2023-07-28T08:37:28;20.10;99.90
26378;DHT22;14078;50.974;6.786;2023-07-28T08:39:55;20.10;99.90
26378;DHT22;14078;50.974;6.786;2023-07-28T08:42:21;20.20;99.90
26378;DHT22;14078;50.974;6.786;2023-07-28T08:44:48;20.30;99.90
26378;DHT22;14078;50.974;6.786;2023-07-28T08:47:17;20.30;99.90
26378;DHT22;14078;50.974;6.786;2023-07-28T08:49:44;20.40;99.90
26378;DHT22;14078;50.974;6.786;2023-07-28T08:52:13;20.50;99.90
26378;DHT22;14078;50.974;6.786;2023-07-28T08:54:40;20.60;99.90
26378;DHT22;14078;50.974;6.786;2023-07-28T08:57:07;20.80;99.90
26378;DHT22;14078;50.974;6.786;2023-07-28T08:59:34;20.80;99.90
26378;DHT22;14078;50.974;6.786;2023-07-28T09:02:01;21.10;99.90
26378;DHT22;14078;50.974;6.786;2023-07-28T09:04:30;21.10;99.90
26378;DHT22;14078;50.974;6.786;2023-07-28T09:06:56;21.10;99.90
26378;DHT22;14078;50.974;6.786;2023-07-28T09:09:24;21.10;99.90
26378;DHT22;14078;50.974;6.786;2023-07-28T09:11:51;21.10;99.90
26378;DHT22;14078;50.974;6.786;2023-07-28T09:14:19;21.30;99.90
26378;DHT22;14078;50.974;6.786;2023-07-28T09:16:46;21.30;99.90
26378;DHT22;14078;50.974;6.786;2023-07-28T09:19:12;21.60;99.90
26378;DHT22;14078;50.974;6.786;2023-07-28T09:21:43;21.80;99.90
26378;DHT22;14078;50.974;6.786;2023-07-28T09:24:11;21.80;99.90
26378;DHT22;14078;50.974;6.786;2023-07-28T09:26:39;21.70;99.90
26378;DHT22;14078;50.974;6.786;2023-07-28T09:29:10;21.60;99.90
26378;DHT22;14078;50.974;6.786;2023-07-28T09:31:37;21.70;99.90
26378;DHT22;14078;50.974;6.786;2023-07-28T09:34:04;21.70;99.90
26378;DHT22;14078;50.974;6.786;2023-07-28T09:36:32;21.60;99.90
26378;DHT22;14078;50.974;6.786;2023-07-28T09:38:59;21.70;99.90
26378;DHT22;14078;50.974;6.786;2023-07-28T09:41:25;21.90;99.90
26378;DHT22;14078;50.974;6.786;2023-07-28T09:43:54;21.90;99.90
26378;DHT22;14078;50.974;6.786;2023-07-28T09:46:22;21.90;99.90
26378;DHT22;14078;50.974;6.786;2023-07-28T09:48:49;22.00;99.90
26378;DHT22;14078;50.974;6.786;2023-07-28T09:51:18;22.10;99.90
26378;DHT22;14078;50.974;6.786;2023-07-28T09:53:46;22.20;99.90
26378;DHT22;14078;50.974;6.786;2023-07-28T09:56:15;22.30;99.90
26378;DHT22;14078;50.974;6.786;2023-07-28T09:58:43;22.30;99.90
26378;DHT22;14078;50.974;6.786;2023-07-28T10:01:12;22.50;99.90
26378;DHT22;14078;50.974;6.786;2023-07-28T10:03:38;22.40;99.90
26378;DHT22;14078;50.974;6.786;2023-07-28T10:06:05;22.40;99.90
26378;DHT22;14078;50.974;6.786;2023-07-28T10:08:32;22.40;99.90
26378;DHT22;14078;50.974;6.786;2023-07-28T10:10:59;22.30;99.90
26378;DHT22;14078;50.974;6.786;2023-07-28T10:13:26;22.20;99.90
26378;DHT22;14078;50.974;6.786;2023-07-28T10:15:53;22.20;99.90
26378;DHT22;14078;50.974;6.786;2023-07-28T10:18:21;22.10;99.90
26378;DHT22;14078;50.974;6.786;2023-07-28T10:20:48;22.20;99.90
26378;DHT22;14078;50.974;6.786;2023-07-28T10:23:17;22.10;99.90
26378;DHT22;14078;50.974;6.786;2023-07-28T10:25:44;22.00;99.90
26378;DHT22;14078;50.974;6.786;2023-07-28T10:28:27;22.00;99.90
26378;DHT22;14078;50.974;6.786;2023-07-28T10:30:54;22.10;99.90
26378;DHT22;14078;50.974;6.786;2023-07-28T10:33:30;22.10;99.90
26378;DHT22;14078;50.974;6.786;2023-07-28T10:35:57;22.20;99.90
26378;DHT22;14078;50.974;6.786;2023-07-28T10:38:31;22.30;99.90
26378;DHT22;14078;50.974;6.786;2023-07-28T10:41:11;22.40;99.90
26378;DHT22;14078;50.974;6.786;2023-07-28T10:43:37;22.60;99.90
26378;DHT22;14078;50.974;6.786;2023-07-28T10:46:05;22.80;99.90
26378;DHT22;14078;50.974;6.786;2023-07-28T10:48:35;23.00;99.90
26378;DHT22;14078;50.974;6.786;2023-07-28T10:51:02;23.10;99.90
26378;DHT22;14078;50.974;6.786;2023-07-28T10:53:28;23.00;99.90
26378;DHT22;14078;50.974;6.786;2023-07-28T10:55:55;22.90;99.90
26378;DHT22;14078;50.974;6.786;2023-07-28T10:58:21;23.10;99.90
26378;DHT22;14078;50.974;6.786;2023-07-28T11:00:49;23.00;99.90
26378;DHT22;14078;50.974;6.786;2023-07-28T11:03:16;22.90;99.90
26378;DHT22;14078;50.974;6.786;2023-07-28T11:05:44;22.80;99.90
26378;DHT22;14078;50.974;6.786;2023-07-28T11:08:10;22.60;99.90
26378;DHT22;14078;50.974;6.786;2023-07-28T11:10:37;22.40;99.90
26378;DHT22;14078;50.974;6.786;2023-07-28T11:13:05;22.40;99.90
26378;DHT22;14078;50.974;6.786;2023-07-28T11:15:32;22.50;99.90
26378;DHT22;14078;50.974;6.786;2023-07-28T11:17:59;22.40;99.90
26378;DHT22;14078;50.974;6.786;2023-07-28T11:20:27;22.40;99.90
26378;DHT22;14078;50.974;6.786;2023-07-28T11:22:56;22.50;99.90
26378;DHT22;14078;50.974;6.786;2023-07-28T11:25:23;22.60;99.90
26378;DHT22;14078;50.974;6.786;2023-07-28T11:27:50;22.70;99.90
26378;DHT22;14078;50.974;6.786;2023-07-28T11:30:17;22.80;99.90
26378;DHT22;14078;50.974;6.786;2023-07-28T11:32:45;23.00;99.90
26378;DHT22;14078;50.974;6.786;2023-07-28T11:35:12;23.00;99.90
26378;DHT22;14078;50.974;6.786;2023-07-28T11:37:41;23.30;99.90
26378;DHT22;14078;50.974;6.786;2023-07-28T11:40:10;23.40;99.90
26378;DHT22;14078;50.974;6.786;2023-07-28T11:42:38;23.60;99.90
26378;DHT22;14078;50.974;6.786;2023-07-28T11:45:05;23.60;99.90
26378;DHT22;14078;50.974;6.786;2023-07-28T11:47:32;23.50;99.90
26378;DHT22;14078;50.974;6.786;2023-07-28T11:49:59;23.40;99.90
26378;DHT22;14078;50.974;6.786;2023-07-28T11:52:28;23.50;99.90
26378;DHT22;14078;50.974;6.786;2023-07-28T11:54:55;23.40;99.90
26378;DHT22;14078;50.974;6.786;2023-07-28T11:57:23;23.40;99.90
26378;DHT22;14078;50.974;6.786;2023-07-28T11:59:50;23.40;99.90
26378;DHT22;14078;50.974;6.786;2023-07-28T12:02:23;23.50;99.90
26378;DHT22;14078;50.974;6.786;2023-07-28T12:04:50;23.60;99.90
26378;DHT22;14078;50.974;6.786;2023-07-28T12:07:18;23.70;99.90
26378;DHT22;14078;50.974;6.786;2023-07-28T12:09:48;23.80;99.90
26378;DHT22;14078;50.974;6.786;2023-07-28T12:12:17;23.70;99.90
26378;DHT22;14078;50.974;6.786;2023-07-28T12:14:45;23.70;98.10
26378;DHT22;14078;50.974;6.786;2023-07-28T12:17:12;23.60;99.90
26378;DHT22;14078;50.974;6.786;2023-07-28T12:19:40;23.70;99.90
26378;DHT22;14078;50.974;6.786;2023-07-28T12:22:07;23.90;99.90
26378;DHT22;14078;50.974;6.786;2023-07-28T12:24:33;24.00;99.90
26378;DHT22;14078;50.974;6.786;2023-07-28T12:27:00;24.00;94.10
26378;DHT22;14078;50.974;6.786;2023-07-28T12:29:27;23.90;99.90
26378;DHT22;14078;50.974;6.786;2023-07-28T12:31:54;24.10;98.10
26378;DHT22;14078;50.974;6.786;2023-07-28T12:34:21;23.90;99.90
26378;DHT22;14078;50.974;6.786;2023-07-28T12:36:48;24.00;99.90
26378;DHT22;14078;50.974;6.786;2023-07-28T12:39:16;23.40;99.90
26378;DHT22;14078;50.974;6.786;2023-07-28T12:41:42;23.50;99.90
26378;DHT22;14078;50.974;6.786;2023-07-28T12:44:10;23.60;99.90
26378;DHT22;14078;50.974;6.786;2023-07-28T12:46:36;23.50;99.90
26378;DHT22;14078;50.974;6.786;2023-07-28T12:49:04;23.40;99.90
26378;DHT22;14078;50.974;6.786;2023-07-28T12:51:32;23.50;99.90
26378;DHT22;14078;50.974;6.786;2023-07-28T12:53:58;23.40;99.90
26378;DHT22;14078;50.974;6.786;2023-07-28T12:56:25;23.40;99.90
26378;DHT22;14078;50.974;6.786;2023-07-28T12:58:52;23.30;99.90
26378;DHT22;14078;50.974;6.786;2023-07-28T13:01:18;23.80;99.90
26378;DHT22;14078;50.974;6.786;2023-07-28T13:03:45;23.60;99.90
26378;DHT22;14078;50.974;6.786;2023-07-28T13:06:13;23.40;99.90
26378;DHT22;14078;50.974;6.786;2023-07-28T13:08:40;23.70;98.30
26378;DHT22;14078;50.974;6.786;2023-07-28T13:11:06;23.80;99.90
26378;DHT22;14078;50.974;6.786;2023-07-28T13:13:33;23.50;99.10
26378;DHT22;14078;50.974;6.786;2023-07-28T13:15:59;23.70;99.90
26378;DHT22;14078;50.974;6.786;2023-07-28T13:18:26;23.90;99.90
26378;DHT22;14078;50.974;6.786;2023-07-28T13:20:54;24.00;99.90
26378;DHT22;14078;50.974;6.786;2023-07-28T13:23:22;23.80;99.90
26378;DHT22;14078;50.974;6.786;2023-07-28T13:25:49;23.90;99.90
26378;DHT22;14078;50.974;6.786;2023-07-28T13:28:16;24.00;99.90
26378;DHT22;14078;50.974;6.786;2023-07-28T13:30:42;24.20;98.40
26378;DHT22;14078;50.974;6.786;2023-07-28T13:33:09;23.90;95.60
26378;DHT22;14078;50.974;6.786;2023-07-28T13:35:36;23.90;99.70
26378;DHT22;14078;50.974;6.786;2023-07-28T13:38:02;24.00;99.90
26378;DHT22;14078;50.974;6.786;2023-07-28T13:40:30;23.90;99.90
26378;DHT22;14078;50.974;6.786;2023-07-28T13:42:57;24.10;99.90
26378;DHT22;14078;50.974;6.786;2023-07-28T13:45:23;24.40;99.90
26378;DHT22;14078;50.974;6.786;2023-07-28T13:47:50;24.60;98.40
26378;DHT22;14078;50.974;6.786;2023-07-28T13:50:16;24.70;98.60
26378;DHT22;14078;50.974;6.786;2023-07-28T13:52:43;24.90;90.90
26378;DHT22;14078;50.974;6.786;2023-07-28T13:55:09;25.30;79.50
26378;DHT22;14078;50.974;6.786;2023-07-28T13:57:37;25.20;63.50
26378;DHT22;14078;50.974;6.786;2023-07-28T14:00:04;25.10;30.40
26378;DHT22;14078;50.974;6.786;2023-07-28T14:02:34;24.80;66.10
26378;DHT22;14078;50.974;6.786;2023-07-28T14:05:00;24.80;83.50
26378;DHT22;14078;50.974;6.786;2023-07-28T14:07:27;24.70;96.50
26378;DHT22;14078;50.974;6.786;2023-07-28T14:09:53;25.00;60.30
26378;DHT22;14078;50.974;6.786;2023-07-28T14:12:21;24.90;55.00
26378;DHT22;14078;50.974;6.786;2023-07-28T14:14:49;25.10;72.10
26378;DHT22;14078;50.974;6.786;2023-07-28T14:17:15;25.20;49.70
26378;DHT22;14078;50.974;6.786;2023-07-28T14:19:42;25.20;33.50
26378;DHT22;14078;50.974;6.786;2023-07-28T14:22:08;25.20;40.80
26378;DHT22;14078;50.974;6.786;2023-07-28T14:24:35;25.10;53.50
26378;DHT22;14078;50.974;6.786;2023-07-28T14:27:02;25.00;42.00
26378;DHT22;14078;50.974;6.786;2023-07-28T14:29:28;24.90;41.30
26378;DHT22;14078;50.974;6.786;2023-07-28T14:31:56;24.50;46.50
26378;DHT22;14078;50.974;6.786;2023-07-28T14:34:23;24.30;77.80
26378;DHT22;14078;50.974;6.786;2023-07-28T14:36:49;24.10;72.30
26378;DHT22;14078;50.974;6.786;2023-07-28T14:39:16;24.00;91.20
26378;DHT22;14078;50.974;6.786;2023-07-28T14:41:43;23.90;92.30
26378;DHT22;14078;50.974;6.786;2023-07-28T14:44:09;23.70;98.70
26378;DHT22;14078;50.974;6.786;2023-07-28T14:46:36;23.80;99.00
26378;DHT22;14078;50.974;6.786;2023-07-28T14:49:04;23.60;99.90
26378;DHT22;14078;50.974;6.786;2023-07-28T14:51:30;23.80;99.90
26378;DHT22;14078;50.974;6.786;2023-07-28T14:53:57;23.60;97.90
26378;DHT22;14078;50.974;6.786;2023-07-28T14:56:23;23.60;99.90
26378;DHT22;14078;50.974;6.786;2023-07-28T14:58:50;23.60;99.90
26378;DHT22;14078;50.974;6.786;2023-07-28T15:01:18;23.10;99.90
26378;DHT22;14078;50.974;6.786;2023-07-28T15:03:45;22.90;99.90
26378;DHT22;14078;50.974;6.786;2023-07-28T15:06:12;22.90;99.90
26378;DHT22;14078;50.974;6.786;2023-07-28T15:08:39;22.90;99.90
26378;DHT22;14078;50.974;6.786;2023-07-28T15:11:06;23.00;99.90
26378;DHT22;14078;50.974;6.786;2023-07-28T15:13:33;23.00;99.90
26378;DHT22;14078;50.974;6.786;2023-07-28T15:15:59;23.10;99.90
26378;DHT22;14078;50.974;6.786;2023-07-28T15:18:26;23.30;99.90
26378;DHT22;14078;50.974;6.786;2023-07-28T15:20:52;23.50;99.90
26378;DHT22;14078;50.974;6.786;2023-07-28T15:23:22;23.70;99.90
26378;DHT22;14078;50.974;6.786;2023-07-28T15:25:49;23.80;99.90
26378;DHT22;14078;50.974;6.786;2023-07-28T15:28:17;23.60;99.90